Terminal Aerodrome Forecast
Issued by NWS

Home | Current Version | Previous Version | Text Only | Print | Product List | Glossary On
Versions: 1 2 3 4 5 6 7 8 9 10 11 12 13 14
000
FTUS46 KSEW 300522
TAFPAE
TAF
KPAE 300522Z 3006/0106 13012G20KT P6SM -RA SCT015 OVC025
      TEMPO 3006/3007 5SM -RA BR BKN012 OVC025
     FM300700 20013G22KT P6SM VCSH BKN020 BKN030 OVC050
     FM301200 22010KT P6SM VCSH SCT012 BKN020
     FM301600 30007KT P6SM -SHRA SCT020 BKN035
     FM302000 34006KT P6SM -SHRA SCT020 BKN035
     FM302300 02005KT P6SM VCSH SCT020 BKN035=

USA.gov is the U.S. government's official web portal to all federal, state and local government web resources and services.